Time;durP1;ratioP1;P1;durP2;ratioP2;P2;SDS_P1;SDS_P2;PMS_P1;PMS_P2;Temp;Humidity;BMP_temperature;BMP_pressure;BME280_temperature;BME280_humidity;BME280_pressure;Samples;Min_cycle;Max_cycle;Signal;HPM_P1;HPM_P2
2021/10/10 04:46:31;;;;;;;78.03;46.83;;;12.30;99.90;;;;;;6068308;22;20022;-82
2021/10/10 04:48:58;;;;;;;77.63;49.97;;;12.30;99.90;;;;;;6115724;22;20068;-82
2021/10/10 04:51:25;;;;;;;79.38;49.58;;;12.30;99.90;;;;;;6117540;22;20057;-82
2021/10/10 04:53:52;;;;;;;79.82;50.15;;;12.30;99.90;;;;;;6118177;22;20021;-82
2021/10/10 04:56:19;;;;;;;81.78;49.63;;;12.30;99.90;;;;;;6119732;22;20026;-82
2021/10/10 04:58:46;;;;;;;77.97;51.10;;;12.30;99.90;;;;;;6117966;22;20026;-81
2021/10/10 05:01:13;;;;;;;75.30;50.15;;;12.30;99.90;;;;;;6118895;23;20022;-82
2021/10/10 05:03:41;;;;;;;83.25;51.58;;;12.30;99.90;;;;;;6118964;23;20079;-83
2021/10/10 05:06:08;;;;;;;83.93;51.00;;;12.30;99.90;;;;;;6118519;22;20022;-83
2021/10/10 05:08:34;;;;;;;74.32;48.53;;;12.30;99.90;;;;;;6119980;23;20071;-81
2021/10/10 05:11:01;;;;;;;72.63;48.47;;;12.30;99.90;;;;;;6119838;23;20029;-83
2021/10/10 05:13:28;;;;;;;79.63;49.92;;;12.30;99.90;;;;;;6119258;22;20045;-83
2021/10/10 05:15:55;;;;;;;77.22;49.25;;;12.30;99.90;;;;;;6119493;22;20023;-83
2021/10/10 05:18:22;;;;;;;81.47;50.60;;;12.30;99.90;;;;;;6119766;23;20030;-83
2021/10/10 05:20:49;;;;;;;73.47;48.95;;;12.30;99.90;;;;;;6119573;22;20022;-82
2021/10/10 05:23:16;;;;;;;79.05;50.05;;;12.30;99.90;;;;;;6118664;22;20072;-83
2021/10/10 05:25:43;;;;;;;75.13;51.45;;;12.30;99.90;;;;;;6119090;22;20356;-82
2021/10/10 05:28:10;;;;;;;82.70;52.28;;;12.30;99.90;;;;;;6118867;22;20029;-83
2021/10/10 05:30:36;;;;;;;78.25;51.20;;;12.30;99.90;;;;;;6119725;22;20082;-82
2021/10/10 05:33:03;;;;;;;79.38;51.40;;;12.30;99.90;;;;;;6120135;22;20021;-83
2021/10/10 05:35:32;;;;;;;76.05;50.35;;;12.30;99.90;;;;;;6118697;22;20018;-81
2021/10/10 05:37:59;;;;;;;80.47;51.45;;;12.30;99.90;;;;;;6119504;22;20076;-82
2021/10/10 05:40:26;;;;;;;73.57;50.65;;;12.30;99.90;;;;;;6119220;22;20024;-82
2021/10/10 05:42:53;;;;;;;74.97;51.17;;;12.30;99.90;;;;;;6120173;23;20026;-82
2021/10/10 05:45:20;;;;;;;78.03;51.47;;;12.30;99.90;;;;;;6093119;23;20026;-83
2021/10/10 05:47:47;;;;;;;77.22;52.38;;;12.30;99.90;;;;;;6119760;22;20105;-83
2021/10/10 05:50:14;;;;;;;73.28;49.97;;;12.40;99.90;;;;;;6092880;23;20048;-83
2021/10/10 05:52:41;;;;;;;73.80;49.25;;;12.40;99.90;;;;;;6119948;23;20052;-82
2021/10/10 05:55:09;;;;;;;70.25;47.70;;;12.40;99.90;;;;;;6119147;22;20083;-82
2021/10/10 05:57:46;;;;;;;69.88;46.05;;;12.40;99.90;;;;;;6119741;23;20022;-81
2021/10/10 06:00:15;;;;;;;71.78;47.92;;;12.40;99.90;;;;;;6119436;22;20476;-83
2021/10/10 06:02:43;;;;;;;;;;;12.40;99.90;;;;;;6120271;23;20080;-82
2021/10/10 06:05:10;;;;;;;72.15;48.92;;;12.40;99.90;;;;;;6118314;22;19920;-83
2021/10/10 06:07:38;;;;;;;71.88;49.78;;;12.40;99.90;;;;;;6119885;22;20029;-84
2021/10/10 06:10:06;;;;;;;70.85;48.70;;;12.40;99.90;;;;;;6119111;23;20022;-84
2021/10/10 06:12:35;;;;;;;73.80;48.45;;;12.40;99.90;;;;;;6120007;22;20084;-82
2021/10/10 06:15:05;;;;;;;83.05;51.95;;;12.40;99.90;;;;;;6119463;22;20022;-82
2021/10/10 06:17:34;;;;;;;73.80;50.67;;;12.40;99.90;;;;;;6118871;23;20041;-80
2021/10/10 06:20:03;;;;;;;72.22;50.85;;;12.40;99.90;;;;;;6120485;23;20091;-82
2021/10/10 06:22:31;;;;;;;73.95;51.97;;;12.40;99.90;;;;;;6119313;22;20464;-82
2021/10/10 06:24:57;;;;;;;77.18;51.13;;;12.50;99.90;;;;;;6093778;23;20477;-81
2021/10/10 06:27:24;;;;;;;75.43;50.38;;;12.50;99.90;;;;;;6119003;23;20456;-82
2021/10/10 06:29:51;;;;;;;63.78;45.28;;;12.50;99.90;;;;;;6120437;23;20018;-83
2021/10/10 06:32:18;;;;;;;66.20;44.45;;;12.50;99.90;;;;;;6092844;23;20076;-83
2021/10/10 06:34:45;;;;;;;63.38;45.03;;;12.60;99.90;;;;;;6119416;23;20472;-82
2021/10/10 06:37:12;;;;;;;64.45;45.30;;;12.50;99.90;;;;;;6118564;22;20080;-82
2021/10/10 06:39:39;;;;;;;59.05;43.45;;;12.60;99.90;;;;;;6119047;22;20029;-82
2021/10/10 06:42:06;;;;;;;63.70;44.72;;;12.60;99.90;;;;;;6117960;22;20437;-82
2021/10/10 06:44:37;;;;;;;64.20;44.50;;;12.60;99.90;;;;;;6092309;23;20018;-83
2021/10/10 06:47:04;;;;;;;68.15;46.60;;;12.60;99.90;;;;;;6114540;22;20080;-82
2021/10/10 06:49:30;;;;;;;68.80;47.83;;;12.60;99.90;;;;;;6089358;23;20022;-82
2021/10/10 06:51:57;;;;;;;73.55;48.47;;;12.60;99.90;;;;;;6115060;22;20030;-82
2021/10/10 06:54:24;;;;;;;74.65;51.35;;;12.60;99.90;;;;;;6089448;23;20052;-83
2021/10/10 06:56:51;;;;;;;74.30;52.25;;;12.60;99.90;;;;;;6089338;23;20541;-82
2021/10/10 06:59:19;;;;;;;79.78;52.30;;;12.60;99.90;;;;;;6088974;23;20026;-82
2021/10/10 07:01:47;;;;;;;76.30;50.30;;;12.60;99.90;;;;;;6114455;22;20018;-81
2021/10/10 07:04:14;;;;;;;78.00;50.93;;;12.60;99.90;;;;;;6113966;22;20109;-81
2021/10/10 07:06:43;;;;;;;72.93;50.42;;;12.60;99.90;;;;;;6114367;22;20038;-81
2021/10/10 07:09:14;;;;;;;73.70;52.33;;;12.70;99.90;;;;;;6114095;23;20018;-81
2021/10/10 07:11:42;;;;;;;76.68;52.17;;;12.70;99.90;;;;;;6089207;23;20079;-81
2021/10/10 07:14:09;;;;;;;78.45;51.58;;;12.70;99.90;;;;;;6088429;23;20026;-82
2021/10/10 07:16:36;;;;;;;78.82;52.72;;;12.70;99.90;;;;;;6114977;23;20022;-82
2021/10/10 07:19:03;;;;;;;76.53;52.55;;;12.70;99.90;;;;;;6114556;22;20022;-81
2021/10/10 07:21:44;;;;;;;77.60;52.10;;;12.70;99.90;;;;;;6115092;22;20512;-80
2021/10/10 07:26:38;;;;;;;76.13;52.47;;;12.80;99.90;;;;;;6114385;22;20018;-81
2021/10/10 07:29:05;;;;;;;73.05;52.17;;;12.80;99.90;;;;;;6114190;23;20038;-81
2021/10/10 07:31:32;;;;;;;77.03;53.78;;;12.90;99.90;;;;;;6114202;22;20041;-81
2021/10/10 07:33:59;;;;;;;76.85;53.65;;;12.90;99.90;;;;;;6087970;23;20026;-81
2021/10/10 07:36:26;;;;;;;77.65;53.20;;;12.90;99.90;;;;;;6113308;22;20096;-80
2021/10/10 07:38:53;;;;;;;71.80;51.75;;;13.00;99.90;;;;;;6113365;22;20464;-80
2021/10/10 07:41:20;;;;;;;77.68;50.92;;;13.00;99.90;;;;;;6088025;23;20022;-80
2021/10/10 07:43:47;;;;;;;77.43;52.72;;;13.10;99.90;;;;;;6113005;22;20026;-81
2021/10/10 07:46:22;;;;;;;78.18;52.75;;;13.10;99.90;;;;;;6112099;22;20075;-80
2021/10/10 07:48:49;;;;;;;75.10;51.45;;;13.10;99.90;;;;;;6087584;23;20350;-80
2021/10/10 07:51:17;;;;;;;79.55;52.60;;;13.20;99.90;;;;;;6112608;22;20451;-79
2021/10/10 07:53:44;;;;;;;73.15;50.70;;;13.20;99.90;;;;;;6113384;22;20034;-80
2021/10/10 07:56:12;;;;;;;74.20;51.17;;;13.20;99.90;;;;;;6115093;22;20109;-79
2021/10/10 07:58:39;;;;;;;70.57;49.10;;;13.30;99.90;;;;;;6117998;23;20076;-78
2021/10/10 08:01:05;;;;;;;66.55;47.45;;;13.40;99.90;;;;;;6116211;22;20422;-79
2021/10/10 08:03:32;;;;;;;71.07;49.80;;;13.40;99.90;;;;;;6091861;23;20026;-80
2021/10/10 08:05:59;;;;;;;73.93;50.00;;;13.50;99.90;;;;;;6117687;22;20025;-81
2021/10/10 08:08:26;;;;;;;69.10;47.72;;;13.50;99.90;;;;;;6091855;23;20025;-80
2021/10/10 08:10:53;;;;;;;65.28;47.15;;;13.60;99.90;;;;;;6118060;23;20060;-82
2021/10/10 08:13:20;;;;;;;61.00;44.70;;;13.70;99.90;;;;;;6116966;22;20026;-82
2021/10/10 08:15:48;;;;;;;58.72;43.03;;;13.80;99.90;;;;;;6117108;22;20084;-83
2021/10/10 08:18:14;;;;;;;59.28;42.58;;;13.90;99.90;;;;;;6091621;23;20300;-82
2021/10/10 08:20:41;;;;;;;55.60;40.30;;;14.00;99.90;;;;;;6117749;22;20107;-83
2021/10/10 08:23:10;;;;;;;48.58;37.97;;;14.00;99.90;;;;;;6116706;22;20017;-84
2021/10/10 08:25:37;;;;;;;47.90;37.83;;;14.10;99.90;;;;;;6117766;22;20014;-83
2021/10/10 08:28:04;;;;;;;48.30;38.05;;;14.20;99.90;;;;;;6117188;22;20083;-81
2021/10/10 08:30:32;;;;;;;53.50;39.27;;;14.20;99.90;;;;;;6117556;22;20018;-83
2021/10/10 08:32:58;;;;;;;53.55;38.38;;;14.30;99.90;;;;;;6116361;22;20030;-83
2021/10/10 08:35:25;;;;;;;49.65;39.22;;;14.40;99.90;;;;;;6115546;23;20079;-84
2021/10/10 08:37:52;;;;;;;49.38;38.30;;;14.50;99.90;;;;;;6116016;22;20430;-83
2021/10/10 08:40:19;;;;;;;50.90;37.08;;;14.60;99.90;;;;;;6113526;22;20104;-82
2021/10/10 08:42:52;;;;;;;52.85;39.75;;;14.70;99.90;;;;;;6116557;22;20026;-84
2021/10/10 08:45:23;;;;;;;51.92;39.25;;;14.70;99.90;;;;;;6090914;23;20022;-83
2021/10/10 08:47:52;;;;;;;47.88;37.45;;;14.80;99.90;;;;;;6116045;22;20075;-83
2021/10/10 08:50:25;;;;;;;44.42;36.65;;;15.00;99.90;;;;;;6115554;23;20079;-84
2021/10/10 08:52:56;;;;;;;44.97;36.60;;;15.00;99.90;;;;;;6117295;22;20026;-84
2021/10/10 08:55:25;;;;;;;50.28;37.40;;;15.10;99.90;;;;;;6116436;23;20022;-84
2021/10/10 08:57:53;;;;;;;46.17;35.85;;;15.20;99.90;;;;;;6118954;22;20502;-84
2021/10/10 09:00:30;;;;;;;44.37;35.60;;;15.30;99.90;;;;;;6117817;22;20029;-83
2021/10/10 09:02:59;;;;;;;46.67;36.35;;;15.40;99.90;;;;;;6092765;23;20277;-83
2021/10/10 09:05:39;;;;;;;44.75;35.78;;;15.50;99.90;;;;;;6118621;23;20026;-87
2021/10/10 09:08:06;;;;;;;46.58;36.88;;;15.60;99.90;;;;;;6093169;23;20022;-86
2021/10/10 09:10:34;;;;;;;49.40;34.17;;;15.60;99.90;;;;;;6093802;23;20080;-83
2021/10/10 09:13:10;;;;;;;43.67;33.97;;;15.70;99.90;;;;;;6118219;22;20018;-84
2021/10/10 09:15:39;;;;;;;42.47;34.78;;;15.80;99.90;;;;;;6118162;23;20076;-85
2021/10/10 09:18:08;;;;;;;45.35;35.63;;;15.80;99.90;;;;;;6117106;22;20026;-86
2021/10/10 09:20:46;;;;;;;42.15;34.97;;;15.90;99.90;;;;;;6092072;23;20395;-84
2021/10/10 09:23:16;;;;;;;40.90;34.17;;;15.90;99.90;;;;;;6117020;22;20461;-85
2021/10/10 09:26:03;;;;;;;41.67;35.05;;;15.90;99.90;;;;;;6092014;23;20030;-83
2021/10/10 09:28:33;;;;;;;40.80;34.10;;;16.00;99.90;;;;;;6104308;23;20033;-88
2021/10/10 09:31:04;;;;;;;41.35;33.67;;;16.00;99.90;;;;;;6118111;22;20480;-84
2021/10/10 09:33:49;;;;;;;;;;;16.00;99.90;;;;;;6094626;23;20022;-85
2021/10/10 09:36:22;;;;;;;38.28;32.53;;;16.10;99.90;;;;;;6115014;22;20366;-85
2021/10/10 09:44:10;;;;;;;42.33;33.67;;;16.20;99.90;;;;;;6114790;23;20410;-84
2021/10/10 09:46:41;;;;;;;37.80;32.78;;;16.20;99.90;;;;;;6078124;23;20014;-84
2021/10/10 09:49:20;;;;;;;41.45;32.72;;;16.30;99.90;;;;;;6114259;22;20025;-87
2021/10/10 09:51:48;;;;;;;38.75;33.17;;;16.30;99.90;;;;;;6096257;22;20480;-82
2021/10/10 09:54:15;;;;;;;37.58;33.30;;;16.30;99.90;;;;;;6086058;22;20026;-84
2021/10/10 09:57:08;;;;;;;41.50;35.38;;;16.30;99.90;;;;;;6112004;23;20430;-85
2021/10/10 09:59:37;;;;;;;38.45;32.38;;;16.30;99.90;;;;;;6086082;23;20494;-85
2021/10/10 10:02:04;;;;;;;38.28;34.15;;;16.30;99.90;;;;;;6115716;22;20499;-84
2021/10/10 10:04:45;;;;;;;39.33;34.00;;;16.30;99.90;;;;;;6114548;22;20073;-84
2021/10/10 10:07:20;;;;;;;35.63;31.58;;;16.40;99.90;;;;;;6112692;22;20026;-84
2021/10/10 10:09:52;;;;;;;37.10;30.63;;;16.50;99.90;;;;;;6090430;23;20040;-84
2021/10/10 10:12:21;;;;;;;35.78;31.98;;;16.50;99.90;;;;;;6087623;23;20025;-86
2021/10/10 10:14:53;;;;;;;36.70;31.48;;;16.60;99.90;;;;;;6114120;22;20364;-83
2021/10/10 10:17:25;;;;;;;36.20;31.08;;;16.60;99.90;;;;;;6087914;23;20109;-84
2021/10/10 10:19:55;;;;;;;38.47;31.17;;;16.60;99.90;;;;;;6089954;23;20025;-86
2021/10/10 10:22:23;;;;;;;33.58;29.85;;;16.60;99.90;;;;;;6089149;23;20623;-86
2021/10/10 10:24:51;;;;;;;36.38;28.48;;;16.60;99.90;;;;;;6116702;22;20026;-87
2021/10/10 10:27:21;;;;;;;31.73;28.10;;;16.60;99.90;;;;;;6115687;22;20352;-88
2021/10/10 10:29:51;;;;;;;26.95;24.17;;;16.60;99.90;;;;;;6116987;22;20029;-87
2021/10/10 10:32:18;;;;;;;32.15;27.13;;;16.60;99.90;;;;;;6090691;23;20657;-88
2021/10/10 10:35:07;;;;;;;30.67;26.00;;;16.60;99.90;;;;;;6091561;23;20472;-88
2021/10/10 10:37:44;;;;;;;34.90;27.45;;;16.70;99.90;;;;;;6114566;22;20093;-87
2021/10/10 10:40:17;;;;;;;29.48;25.73;;;16.70;99.90;;;;;;6088259;23;20025;-87
2021/10/10 10:42:55;;;;;;;29.27;25.65;;;16.70;99.90;;;;;;6089416;23;20018;-90
2021/10/10 10:45:51;;;;;;;30.45;24.63;;;16.70;99.90;;;;;;6083641;23;20115;-91
2021/10/10 10:48:35;;;;;;;29.48;25.60;;;16.70;99.90;;;;;;6092841;23;20026;-90
2021/10/10 10:51:30;;;;;;;28.08;24.85;;;16.70;99.90;;;;;;6103762;23;20025;-88
2021/10/10 10:54:42;;;;;;;28.33;23.70;;;16.70;99.90;;;;;;6089654;23;20022;-92
2021/10/10 10:57:54;;;;;;;28.02;24.02;;;16.80;99.90;;;;;;6087845;22;20026;-93
2021/10/10 11:00:26;;;;;;;24.25;21.75;;;16.90;99.90;;;;;;6048056;23;20027;-90
2021/10/10 11:06:22;;;;;;;26.48;23.08;;;17.00;99.90;;;;;;6012786;23;20095;-90
2021/10/10 11:08:52;;;;;;;25.15;22.48;;;16.90;99.90;;;;;;6014720;23;20019;-91
2021/10/10 11:12:17;;;;;;;25.48;22.77;;;16.90;99.90;;;;;;5964811;23;20027;-89
2021/10/10 11:15:10;;;;;;;25.63;23.00;;;16.80;99.90;;;;;;5996245;23;20798;-90
2021/10/10 11:18:28;;;;;;;31.77;26.20;;;16.90;99.90;;;;;;5939387;23;20030;-93
2021/10/10 11:21:12;;;;;;;26.90;23.65;;;16.90;99.90;;;;;;5953452;23;20043;-89
2021/10/10 11:24:18;;;;;;;;;;;;;;;;;;;;;
2021/10/10 11:27:18;;;;;;;26.58;23.80;;;17.10;99.90;;;;;;5778345;24;20054;-91
2021/10/10 11:30:27;;;;;;;;;;;;;;;;;;;;;
2021/10/10 11:33:58;;;;;;;25.50;22.67;;;17.30;99.90;;;;;;5775498;24;20037;-93
2021/10/10 11:40:47;;;;;;;;;;;;;;;;;;;;;
2021/10/10 11:54:25;;;;;;;20.23;18.13;;;17.40;99.90;;;;;;6199350;22;4169036;-88
2021/10/10 11:57:40;;;;;;;19.60;17.52;;;18.00;99.90;;;;;;6205666;22;20041;-89
2021/10/10 12:00:24;;;;;;;21.88;19.50;;;18.10;99.90;;;;;;5966430;23;20416;-92
2021/10/10 12:03:10;;;;;;;20.00;18.05;;;18.10;99.90;;;;;;5978837;23;20028;-92
2021/10/10 12:05:50;;;;;;;23.02;20.73;;;18.10;99.90;;;;;;6010581;23;20028;-90
2021/10/10 12:08:21;;;;;;;21.48;19.25;;;18.00;99.90;;;;;;5989758;23;20078;-91
2021/10/10 12:10:49;;;;;;;22.75;20.35;;;18.00;99.90;;;;;;6012251;23;20019;-91
2021/10/10 12:13:18;;;;;;;21.63;19.48;;;18.00;99.90;;;;;;6012217;23;20028;-92
2021/10/10 12:16:02;;;;;;;23.15;20.88;;;18.00;99.90;;;;;;6019249;23;20138;-93
2021/10/10 12:18:32;;;;;;;21.58;18.60;;;18.00;99.90;;;;;;6019150;23;20092;-93
2021/10/10 12:21:39;;;;;;;21.67;19.58;;;18.00;99.90;;;;;;6018469;23;20042;-94
2021/10/10 12:24:10;;;;;;;21.90;18.03;;;17.90;99.90;;;;;;5948905;24;20553;-93
2021/10/10 12:26:51;;;;;;;18.27;16.38;;;17.90;99.90;;;;;;5962501;23;21185;-90
2021/10/10 12:29:30;;;;;;;22.48;17.15;;;17.90;99.90;;;;;;5986511;23;20032;-93
2021/10/10 12:32:17;;;;;;;18.95;17.10;;;18.00;99.90;;;;;;6015739;23;20018;-93
2021/10/10 12:34:47;;;;;;;17.30;15.50;;;18.10;99.90;;;;;;6010944;23;20122;-94
2021/10/10 12:37:23;;;;;;;15.93;14.32;;;18.30;99.90;;;;;;6122176;23;20040;-93
2021/10/10 12:39:51;;;;;;;16.58;13.93;;;18.30;99.90;;;;;;6166681;23;20518;-93
2021/10/10 12:42:19;;;;;;;16.17;14.43;;;18.30;99.90;;;;;;6173077;23;20020;-93
2021/10/10 12:45:26;;;;;;;15.77;14.27;;;18.40;99.90;;;;;;6191436;23;20527;-89
2021/10/10 12:47:58;;;;;;;15.90;14.35;;;18.50;99.90;;;;;;6152656;23;20024;-92
2021/10/10 12:50:25;;;;;;;15.07;13.65;;;18.50;99.90;;;;;;6264960;22;20031;-89
2021/10/10 12:52:55;;;;;;;15.80;14.30;;;18.50;99.90;;;;;;6250435;22;20030;-89
2021/10/10 12:55:27;;;;;;;14.63;13.07;;;18.50;99.90;;;;;;6239801;22;20373;-92
2021/10/10 12:57:58;;;;;;;15.90;14.32;;;18.40;99.90;;;;;;6271249;22;20022;-87
2021/10/10 13:00:27;;;;;;;15.35;13.82;;;18.30;99.90;;;;;;6272364;22;22270;-95
2021/10/10 13:02:55;;;;;;;14.43;12.93;;;18.30;99.90;;;;;;6272489;22;20090;-90
2021/10/10 13:05:22;;;;;;;15.05;13.05;;;18.30;99.90;;;;;;6236776;22;20089;-92
2021/10/10 13:07:49;;;;;;;12.70;11.50;;;18.30;99.90;;;;;;6270795;22;20034;-91
2021/10/10 13:10:17;;;;;;;13.98;11.48;;;18.40;99.90;;;;;;6242409;22;20019;-93
2021/10/10 13:12:44;;;;;;;12.70;11.30;;;18.40;99.90;;;;;;6272406;22;20472;-91
2021/10/10 13:15:11;;;;;;;14.50;12.98;;;18.50;99.90;;;;;;6242390;22;20082;-89
2021/10/10 13:17:38;;;;;;;12.00;10.75;;;18.60;99.90;;;;;;6272373;22;20461;-89
2021/10/10 13:20:06;;;;;;;13.75;11.13;;;18.60;99.90;;;;;;6273102;22;20512;-89
2021/10/10 13:22:33;;;;;;;13.43;12.10;;;18.70;99.90;;;;;;6272287;22;20730;-89
2021/10/10 13:25:05;;;;;;;12.32;11.02;;;18.80;99.90;;;;;;6247080;22;20020;-91
2021/10/10 13:27:32;;;;;;;12.75;10.70;;;18.80;99.90;;;;;;6273357;22;20007;-88
2021/10/10 13:29:59;;;;;;;11.80;10.63;;;18.90;99.90;;;;;;6274275;22;20074;-90
2021/10/10 13:32:26;;;;;;;13.30;12.00;;;18.90;99.90;;;;;;6248054;22;20086;-86
2021/10/10 13:34:53;;;;;;;14.27;12.85;;;19.00;99.90;;;;;;6248402;22;20019;-90
2021/10/10 13:37:23;;;;;;;14.40;12.95;;;19.00;99.90;;;;;;6274362;22;20027;-89
2021/10/10 13:39:50;;;;;;;14.00;12.55;;;19.00;99.90;;;;;;6274333;22;20012;-90
2021/10/10 13:42:17;;;;;;;13.45;12.05;;;19.00;99.90;;;;;;6273539;22;20536;-90
2021/10/10 13:44:43;;;;;;;13.43;12.13;;;19.10;99.90;;;;;;6248158;22;20354;-90
2021/10/10 13:47:10;;;;;;;14.30;12.38;;;19.10;99.90;;;;;;6273332;22;20019;-86
2021/10/10 13:49:43;;;;;;;11.57;10.35;;;19.10;99.90;;;;;;6248117;22;20011;-89
2021/10/10 13:52:11;;;;;;;11.95;10.85;;;19.10;99.90;;;;;;6246537;22;20024;-86
2021/10/10 13:54:38;;;;;;;9.88;8.93;;;19.10;99.90;;;;;;6246880;22;20020;-87
2021/10/10 13:57:05;;;;;;;12.48;10.23;;;19.10;99.90;;;;;;6273297;22;20070;-90
2021/10/10 13:59:36;;;;;;;11.18;10.00;;;19.00;99.90;;;;;;6273945;22;20022;-91
2021/10/10 14:02:03;;;;;;;12.35;10.63;;;19.00;99.90;;;;;;6274610;22;20543;-89
2021/10/10 14:04:30;;;;;;;11.88;10.68;;;19.00;99.90;;;;;;6246167;22;20069;-88
2021/10/10 14:06:57;;;;;;;11.60;9.73;;;19.10;99.90;;;;;;6271603;22;20016;-87
2021/10/10 14:09:24;;;;;;;10.65;9.15;;;19.10;99.90;;;;;;6247390;22;20319;-90
2021/10/10 14:11:51;;;;;;;10.60;9.50;;;19.20;99.90;;;;;;6275085;22;20015;-90
2021/10/10 14:14:18;;;;;;;9.73;8.73;;;19.30;99.90;;;;;;6273442;22;20075;-88
2021/10/10 14:16:45;;;;;;;10.57;8.93;;;19.30;99.90;;;;;;6247682;22;20019;-89
2021/10/10 14:19:12;;;;;;;10.25;9.30;;;19.30;99.90;;;;;;6247210;22;20031;-89
2021/10/10 14:21:39;;;;;;;11.07;9.98;;;19.30;99.90;;;;;;6247424;22;20066;-89
2021/10/10 14:24:06;;;;;;;9.73;8.65;;;19.30;99.90;;;;;;6268852;22;20023;-91
2021/10/10 14:26:57;;;;;;;10.70;9.63;;;19.30;99.90;;;;;;6273878;22;20065;-89
2021/10/10 14:29:24;;;;;;;10.80;9.40;;;19.30;99.90;;;;;;6272357;22;20031;-87
2021/10/10 14:31:51;;;;;;;9.85;8.85;;;19.30;99.90;;;;;;6273935;22;20015;-90
2021/10/10 14:34:18;;;;;;;9.48;8.48;;;19.20;99.90;;;;;;6274691;22;20016;-91
2021/10/10 14:36:47;;;;;;;8.38;7.57;;;19.20;99.90;;;;;;6273999;22;20046;-91
2021/10/10 14:39:17;;;;;;;9.05;8.07;;;19.30;99.90;;;;;;6248299;22;20263;-90
2021/10/10 14:47:15;;;;;;;9.63;8.70;;;19.30;99.90;;;;;;6274326;22;20069;-87
2021/10/10 14:49:42;;;;;;;9.15;8.25;;;19.30;99.90;;;;;;6274991;22;20015;-89
2021/10/10 14:52:09;;;;;;;8.82;7.93;;;19.30;99.90;;;;;;6274333;22;20066;-86
2021/10/10 14:54:36;;;;;;;9.60;7.93;;;19.30;99.90;;;;;;6248211;22;20062;-86
2021/10/10 14:57:06;;;;;;;7.72;7.03;;;19.30;99.90;;;;;;6246437;22;20031;-85
2021/10/10 14:59:33;;;;;;;6.93;5.93;;;19.30;99.90;;;;;;6250921;22;20196;-85
2021/10/10 15:02:00;;;;;;;9.15;8.23;;;19.30;99.90;;;;;;6266979;22;20077;-85
2021/10/10 15:04:27;;;;;;;8.15;7.35;;;19.30;99.90;;;;;;6265403;22;20020;-84
2021/10/10 15:07:00;;;;;;;8.85;6.47;;;19.30;99.90;;;;;;6266170;22;20023;-84
2021/10/10 15:09:28;;;;;;;9.13;7.25;;;19.30;99.90;;;;;;6265229;22;20024;-85
2021/10/10 15:11:56;;;;;;;9.50;8.50;;;19.30;99.90;;;;;;6266117;22;20020;-84
2021/10/10 15:14:23;;;;;;;9.57;8.52;;;19.30;99.90;;;;;;6266172;22;20031;-84
2021/10/10 15:16:49;;;;;;;7.68;6.97;;;19.30;99.90;;;;;;6266168;22;20011;-85
2021/10/10 15:19:17;;;;;;;10.30;7.85;;;19.20;99.90;;;;;;6264783;22;20024;-84
2021/10/10 15:21:44;;;;;;;7.18;6.47;;;19.30;99.90;;;;;;6265871;22;20032;-84
2021/10/10 15:24:14;;;;;;;8.18;7.38;;;19.30;99.90;;;;;;6266358;22;20012;-86
2021/10/10 15:26:41;;;;;;;8.98;7.65;;;19.30;99.90;;;;;;6238519;22;20466;-86
2021/10/10 15:29:09;;;;;;;8.50;7.60;;;19.20;99.90;;;;;;6264575;22;20247;-84
2021/10/10 15:31:57;;;;;;;;;;;19.20;99.90;;;;;;6265279;22;20090;-83
2021/10/10 15:34:24;;;;;;;7.80;6.72;;;19.10;99.90;;;;;;6262766;22;20009;-84
2021/10/10 15:36:51;;;;;;;10.13;8.07;;;19.10;99.90;;;;;;6264263;22;20020;-83
2021/10/10 15:39:18;;;;;;;10.80;9.48;;;19.00;99.90;;;;;;6263842;22;20101;-83
2021/10/10 15:41:46;;;;;;;8.75;7.82;;;19.00;99.90;;;;;;6263341;22;20027;-83
2021/10/10 15:44:15;;;;;;;9.00;8.10;;;19.00;99.90;;;;;;6263514;22;20023;-86
2021/10/10 15:46:42;;;;;;;10.50;9.27;;;18.90;99.90;;;;;;6265064;22;20019;-85
2021/10/10 15:49:09;;;;;;;9.82;8.80;;;18.90;99.90;;;;;;6237281;22;20071;-86
2021/10/10 15:51:37;;;;;;;9.63;8.73;;;18.90;99.90;;;;;;6264621;22;20024;-84
2021/10/10 15:54:06;;;;;;;10.00;8.60;;;18.90;99.90;;;;;;6264672;22;20019;-84
2021/10/10 15:56:34;;;;;;;8.85;7.95;;;19.00;99.90;;;;;;6265062;22;20021;-85
2021/10/10 15:59:02;;;;;;;8.97;8.07;;;19.00;99.90;;;;;;6265030;22;20097;-84
2021/10/10 16:01:29;;;;;;;9.45;7.63;;;18.90;99.90;;;;;;6264637;22;20016;-86
2021/10/10 16:03:57;;;;;;;9.50;8.18;;;18.80;99.90;;;;;;6265688;22;20024;-85
2021/10/10 16:06:24;;;;;;;9.75;7.80;;;18.80;99.90;;;;;;6265273;22;20466;-85
2021/10/10 16:08:51;;;;;;;9.18;8.07;;;18.70;99.90;;;;;;6265631;22;20023;-86
2021/10/10 16:11:17;;;;;;;8.35;7.53;;;18.60;99.90;;;;;;6265437;22;20023;-85
2021/10/10 16:13:44;;;;;;;10.23;9.23;;;18.60;99.90;;;;;;6265452;22;20020;-83
2021/10/10 16:16:11;;;;;;;10.85;9.70;;;18.60;99.90;;;;;;6263925;22;20016;-85
2021/10/10 16:18:39;;;;;;;13.48;10.48;;;18.60;99.90;;;;;;6264477;22;20019;-87
2021/10/10 16:21:08;;;;;;;11.60;9.95;;;18.50;99.90;;;;;;6237783;22;20074;-86
2021/10/10 16:23:37;;;;;;;13.38;10.68;;;18.50;99.90;;;;;;6263761;22;20040;-86
2021/10/10 16:26:04;;;;;;;12.00;10.63;;;18.50;99.90;;;;;;6266017;22;20016;-90
2021/10/10 16:28:34;;;;;;;11.95;10.63;;;18.30;99.90;;;;;;6244025;22;20019;-90
2021/10/10 16:31:02;;;;;;;13.57;11.70;;;18.30;99.90;;;;;;6271361;22;20016;-87
2021/10/10 16:33:33;;;;;;;12.02;10.93;;;18.20;99.90;;;;;;6269584;22;20496;-89
2021/10/10 16:36:08;;;;;;;11.77;10.57;;;18.10;99.90;;;;;;6243585;22;20493;-89
2021/10/10 16:38:41;;;;;;;14.88;11.23;;;18.00;99.90;;;;;;6270949;22;20405;-89
2021/10/10 16:43:55;;;;;;;16.02;11.75;;;17.90;99.90;;;;;;6270441;22;20457;-89
2021/10/10 16:46:22;;;;;;;12.13;10.88;;;17.90;99.90;;;;;;6242301;22;20022;-85
2021/10/10 16:48:49;;;;;;;12.25;10.95;;;17.80;99.90;;;;;;6266867;22;20106;-86
2021/10/10 16:51:16;;;;;;;13.90;10.60;;;17.80;99.90;;;;;;6265381;22;20512;-85
2021/10/10 16:53:44;;;;;;;11.20;10.05;;;17.70;99.90;;;;;;6266987;22;20415;-87
2021/10/10 16:56:11;;;;;;;13.10;9.95;;;17.60;99.90;;;;;;6266890;22;20032;-87
2021/10/10 16:58:39;;;;;;;14.13;10.75;;;17.60;99.90;;;;;;6267335;22;20019;-85
2021/10/10 17:01:06;;;;;;;11.55;10.18;;;17.50;99.90;;;;;;6267820;22;20023;-88
2021/10/10 17:03:34;;;;;;;12.30;10.50;;;17.50;99.90;;;;;;6266492;22;20020;-87
2021/10/10 17:06:01;;;;;;;13.43;11.00;;;17.40;99.90;;;;;;6267586;22;20011;-88
2021/10/10 17:08:29;;;;;;;15.45;11.80;;;17.30;99.90;;;;;;6265870;22;20073;-86
2021/10/10 17:10:56;;;;;;;14.30;11.63;;;17.20;99.90;;;;;;6238701;22;20426;-87
2021/10/10 17:13:26;;;;;;;14.13;11.32;;;17.10;99.90;;;;;;6265663;22;20024;-87
2021/10/10 17:15:53;;;;;;;13.45;11.68;;;17.00;99.90;;;;;;6267629;22;20023;-85
2021/10/10 17:18:20;;;;;;;15.52;12.88;;;16.90;99.90;;;;;;6265601;22;20028;-86
2021/10/10 17:20:47;;;;;;;13.98;12.48;;;16.90;99.90;;;;;;6265617;22;20093;-85
2021/10/10 17:23:15;;;;;;;14.98;12.30;;;16.80;99.90;;;;;;6264567;22;20031;-86
2021/10/10 17:25:43;;;;;;;14.10;12.35;;;16.70;99.90;;;;;;6265861;22;20373;-85
2021/10/10 17:28:10;;;;;;;14.15;11.50;;;16.60;99.90;;;;;;6265783;22;20016;-84
2021/10/10 17:30:37;;;;;;;13.60;12.18;;;16.60;99.90;;;;;;6267836;22;20015;-88
2021/10/10 17:33:04;;;;;;;12.80;11.50;;;16.60;99.90;;;;;;6267894;22;20027;-86
2021/10/10 17:35:31;;;;;;;12.50;11.20;;;16.50;99.90;;;;;;6265686;22;20027;-85
2021/10/10 17:37:58;;;;;;;15.57;11.90;;;16.50;99.90;;;;;;6267160;22;20027;-87
2021/10/10 17:40:25;;;;;;;12.85;11.48;;;16.40;99.90;;;;;;6267886;22;20023;-91
2021/10/10 17:42:52;;;;;;;14.43;11.52;;;16.40;99.90;;;;;;6271899;22;20410;-89
2021/10/10 17:45:19;;;;;;;14.52;12.82;;;16.30;99.90;;;;;;6270948;22;20482;-91
2021/10/10 17:47:46;;;;;;;14.10;12.25;;;16.20;99.90;;;;;;6271584;22;20023;-90
2021/10/10 17:50:13;;;;;;;18.02;13.50;;;16.20;99.90;;;;;;6270268;22;20018;-90
2021/10/10 17:52:49;;;;;;;17.80;15.95;;;16.10;99.90;;;;;;6272775;22;20016;-91
2021/10/10 17:55:16;;;;;;;20.20;15.40;;;16.10;99.90;;;;;;6271410;22;20027;-90
2021/10/10 17:57:46;;;;;;;21.98;15.55;;;16.00;99.90;;;;;;6273347;22;20077;-90
2021/10/10 18:00:27;;;;;;;18.45;15.20;;;15.90;99.90;;;;;;6272800;22;20073;-90
2021/10/10 18:11:40;;;;;;;18.40;14.30;;;15.60;99.90;;;;;;6149506;23;20025;-91
2021/10/10 18:14:07;;;;;;;16.63;14.77;;;15.50;99.90;;;;;;6149712;23;20018;-90
2021/10/10 18:16:34;;;;;;;17.08;15.18;;;15.50;99.90;;;;;;6150077;23;20076;-90
2021/10/10 18:19:01;;;;;;;22.08;16.05;;;15.40;99.90;;;;;;6150168;23;20022;-91
2021/10/10 18:21:28;;;;;;;18.75;15.80;;;15.40;99.90;;;;;;6149033;23;20672;-90